<?xml version="1.0" encoding="UTF-8"?>
<gpx xmlns="http://www.topografix.com/GPX/1/1" xmlns:gpsies="http://www.gpsies.com/GPX/1/0" creator="GPSies http://www.gpsies.com - K&amp;#246;nigsweglauf" version="1.1" xmlns:xsi="http://www.w3.org/2001/XMLSchema-instance" xsi:schemaLocation="http://www.topografix.com/GPX/1/1 http://www.topografix.com/GPX/1/1/gpx.xsd http://www.gpsies.com/GPX/1/0 http://www.gpsies.com/gpsies.xsd">
  <metadata>
    <name>Königsweglauf</name>
    <link href="http://www.gpsies.com/map.do?fileId=pevvxacfxbnyvaph">
      <text>Königsweglauf on GPSies.com</text>
    </link>
    <time>2011-12-26T18:19:58Z</time>
    <extensions>
      <gpsies:property>round trip</gpsies:property>
      <gpsies:trackLengthMeter>11485.9603930677</gpsies:trackLengthMeter>
      <gpsies:totalAscentMeter>81.0</gpsies:totalAscentMeter>
      <gpsies:totalDescentMeter>81.0</gpsies:totalDescentMeter>
      <gpsies:minHeightMeter>29.0</gpsies:minHeightMeter>
      <gpsies:maxHeightMeter>57.0</gpsies:maxHeightMeter>
    </extensions>
  </metadata>
  <trk>
    <name>Königsweglauf on GPSies.com</name>
    <link href="http://www.gpsies.com/map.do?fileId=pevvxacfxbnyvaph" />
    <trkseg>
      <trkpt lat="52.40503710" lon="13.20260520">
        <ele>44.000000</ele>
        <time>2011-12-26T18:19:58Z</time>
      </trkpt>
      <trkpt lat="52.40652940" lon="13.20213310">
        <ele>47.000000</ele>
        <time>2011-12-26T18:20:59Z</time>
      </trkpt>
      <trkpt lat="52.40650320" lon="13.20071690">
        <ele>49.000000</ele>
        <time>2011-12-26T18:21:33Z</time>
      </trkpt>
      <trkpt lat="52.40681740" lon="13.20033070">
        <ele>50.000000</ele>
        <time>2011-12-26T18:21:49Z</time>
      </trkpt>
      <trkpt lat="52.40783840" lon="13.20015900">
        <ele>51.000000</ele>
        <time>2011-12-26T18:22:30Z</time>
      </trkpt>
      <trkpt lat="52.40880710" lon="13.19977280">
        <ele>49.000000</ele>
        <time>2011-12-26T18:23:10Z</time>
      </trkpt>
      <trkpt lat="52.40959240" lon="13.19865700">
        <ele>56.000000</ele>
        <time>2011-12-26T18:23:52Z</time>
      </trkpt>
      <trkpt lat="52.41019450" lon="13.19766990">
        <ele>53.000000</ele>
        <time>2011-12-26T18:24:26Z</time>
      </trkpt>
      <trkpt lat="52.41056100" lon="13.19689750">
        <ele>49.000000</ele>
        <time>2011-12-26T18:24:50Z</time>
      </trkpt>
      <trkpt lat="52.41186990" lon="13.19749830">
        <ele>48.000000</ele>
        <time>2011-12-26T18:25:44Z</time>
      </trkpt>
      <trkpt lat="52.41307410" lon="13.19792740">
        <ele>47.000000</ele>
        <time>2011-12-26T18:26:33Z</time>
      </trkpt>
      <trkpt lat="52.41480170" lon="13.19762700">
        <ele>49.000000</ele>
        <time>2011-12-26T18:27:43Z</time>
      </trkpt>
      <trkpt lat="52.41566550" lon="13.19732660">
        <ele>43.000000</ele>
        <time>2011-12-26T18:28:18Z</time>
      </trkpt>
      <trkpt lat="52.41493260" lon="13.19535250">
        <ele>55.000000</ele>
        <time>2011-12-26T18:29:15Z</time>
      </trkpt>
      <trkpt lat="52.41241970" lon="13.18792810">
        <ele>57.000000</ele>
        <time>2011-12-26T18:32:42Z</time>
      </trkpt>
      <trkpt lat="52.41077050" lon="13.18273540">
        <ele>57.000000</ele>
        <time>2011-12-26T18:35:05Z</time>
      </trkpt>
      <trkpt lat="52.40933060" lon="13.17844390">
        <ele>50.000000</ele>
        <time>2011-12-26T18:37:05Z</time>
      </trkpt>
      <trkpt lat="52.40802170" lon="13.17445270">
        <ele>55.000000</ele>
        <time>2011-12-26T18:38:55Z</time>
      </trkpt>
      <trkpt lat="52.40673880" lon="13.17071910">
        <ele>52.000000</ele>
        <time>2011-12-26T18:40:40Z</time>
      </trkpt>
      <trkpt lat="52.40529890" lon="13.16629880">
        <ele>52.000000</ele>
        <time>2011-12-26T18:42:42Z</time>
      </trkpt>
      <trkpt lat="52.40430400" lon="13.16329470">
        <ele>53.000000</ele>
        <time>2011-12-26T18:44:06Z</time>
      </trkpt>
      <trkpt lat="52.40296870" lon="13.15938940">
        <ele>53.000000</ele>
        <time>2011-12-26T18:45:55Z</time>
      </trkpt>
      <trkpt lat="52.40152860" lon="13.15514080">
        <ele>56.000000</ele>
        <time>2011-12-26T18:47:54Z</time>
      </trkpt>
      <trkpt lat="52.40053360" lon="13.15230840">
        <ele>55.000000</ele>
        <time>2011-12-26T18:49:14Z</time>
      </trkpt>
      <trkpt lat="52.39922440" lon="13.14797400">
        <ele>51.000000</ele>
        <time>2011-12-26T18:51:12Z</time>
      </trkpt>
      <trkpt lat="52.39893630" lon="13.14698690">
        <ele>44.000000</ele>
        <time>2011-12-26T18:51:38Z</time>
      </trkpt>
      <trkpt lat="52.39909340" lon="13.14548490">
        <ele>39.000000</ele>
        <time>2011-12-26T18:52:16Z</time>
      </trkpt>
      <trkpt lat="52.39820310" lon="13.14424030">
        <ele>35.000000</ele>
        <time>2011-12-26T18:53:03Z</time>
      </trkpt>
      <trkpt lat="52.39770560" lon="13.14355370">
        <ele>36.000000</ele>
        <time>2011-12-26T18:53:29Z</time>
      </trkpt>
      <trkpt lat="52.39668430" lon="13.14441200">
        <ele>40.000000</ele>
        <time>2011-12-26T18:54:14Z</time>
      </trkpt>
      <trkpt lat="52.39712950" lon="13.14630030">
        <ele>37.000000</ele>
        <time>2011-12-26T18:55:04Z</time>
      </trkpt>
      <trkpt lat="52.39702480" lon="13.14805980">
        <ele>34.000000</ele>
        <time>2011-12-26T18:55:47Z</time>
      </trkpt>
      <trkpt lat="52.39668430" lon="13.14994810">
        <ele>33.000000</ele>
        <time>2011-12-26T18:56:35Z</time>
      </trkpt>
      <trkpt lat="52.39623920" lon="13.15329550">
        <ele>43.000000</ele>
        <time>2011-12-26T18:57:59Z</time>
      </trkpt>
      <trkpt lat="52.39605590" lon="13.15638540">
        <ele>35.000000</ele>
        <time>2011-12-26T18:59:15Z</time>
      </trkpt>
      <trkpt lat="52.39618680" lon="13.15960400">
        <ele>35.000000</ele>
        <time>2011-12-26T19:00:34Z</time>
      </trkpt>
      <trkpt lat="52.39663200" lon="13.16419600">
        <ele>31.000000</ele>
        <time>2011-12-26T19:02:27Z</time>
      </trkpt>
      <trkpt lat="52.39668430" lon="13.16604130">
        <ele>31.000000</ele>
        <time>2011-12-26T19:03:12Z</time>
      </trkpt>
      <trkpt lat="52.39692000" lon="13.16685670">
        <ele>33.000000</ele>
        <time>2011-12-26T19:03:34Z</time>
      </trkpt>
      <trkpt lat="52.39733900" lon="13.16977500">
        <ele>31.000000</ele>
        <time>2011-12-26T19:04:47Z</time>
      </trkpt>
      <trkpt lat="52.39828170" lon="13.17380900">
        <ele>29.000000</ele>
        <time>2011-12-26T19:06:33Z</time>
      </trkpt>
      <trkpt lat="52.39883160" lon="13.17672720">
        <ele>30.000000</ele>
        <time>2011-12-26T19:07:48Z</time>
      </trkpt>
      <trkpt lat="52.39919820" lon="13.17955970">
        <ele>31.000000</ele>
        <time>2011-12-26T19:08:58Z</time>
      </trkpt>
      <trkpt lat="52.39927670" lon="13.18174830">
        <ele>31.000000</ele>
        <time>2011-12-26T19:09:52Z</time>
      </trkpt>
      <trkpt lat="52.39904110" lon="13.18535320">
        <ele>32.000000</ele>
        <time>2011-12-26T19:11:20Z</time>
      </trkpt>
      <trkpt lat="52.39875300" lon="13.18840020">
        <ele>34.000000</ele>
        <time>2011-12-26T19:12:36Z</time>
      </trkpt>
      <trkpt lat="52.39820310" lon="13.19050310">
        <ele>35.000000</ele>
        <time>2011-12-26T19:13:32Z</time>
      </trkpt>
      <trkpt lat="52.39754850" lon="13.19213390">
        <ele>36.000000</ele>
        <time>2011-12-26T19:14:19Z</time>
      </trkpt>
      <trkpt lat="52.39663200" lon="13.19427960">
        <ele>37.000000</ele>
        <time>2011-12-26T19:15:23Z</time>
      </trkpt>
      <trkpt lat="52.39618680" lon="13.19625370">
        <ele>33.000000</ele>
        <time>2011-12-26T19:16:15Z</time>
      </trkpt>
      <trkpt lat="52.39566310" lon="13.19814200">
        <ele>34.000000</ele>
        <time>2011-12-26T19:17:05Z</time>
      </trkpt>
      <trkpt lat="52.39513930" lon="13.20063110">
        <ele>30.000000</ele>
        <time>2011-12-26T19:18:10Z</time>
      </trkpt>
      <trkpt lat="52.39503460" lon="13.20286270">
        <ele>31.000000</ele>
        <time>2011-12-26T19:19:04Z</time>
      </trkpt>
      <trkpt lat="52.39503460" lon="13.20483680">
        <ele>31.000000</ele>
        <time>2011-12-26T19:19:53Z</time>
      </trkpt>
      <trkpt lat="52.39532260" lon="13.20818420">
        <ele>38.000000</ele>
        <time>2011-12-26T19:21:15Z</time>
      </trkpt>
      <trkpt lat="52.39663200" lon="13.20784090">
        <ele>39.000000</ele>
        <time>2011-12-26T19:22:08Z</time>
      </trkpt>
      <trkpt lat="52.39815080" lon="13.20758340">
        <ele>42.000000</ele>
        <time>2011-12-26T19:23:09Z</time>
      </trkpt>
      <trkpt lat="52.39922440" lon="13.20715420">
        <ele>42.000000</ele>
        <time>2011-12-26T19:23:54Z</time>
      </trkpt>
      <trkpt lat="52.40079540" lon="13.20479390">
        <ele>44.000000</ele>
        <time>2011-12-26T19:25:19Z</time>
      </trkpt>
      <trkpt lat="52.40186900" lon="13.20324890">
        <ele>45.000000</ele>
        <time>2011-12-26T19:26:16Z</time>
      </trkpt>
      <trkpt lat="52.40252360" lon="13.20204730">
        <ele>44.000000</ele>
        <time>2011-12-26T19:26:55Z</time>
      </trkpt>
      <trkpt lat="52.40344000" lon="13.20367810">
        <ele>45.000000</ele>
        <time>2011-12-26T19:27:50Z</time>
      </trkpt>
      <trkpt lat="52.40488000" lon="13.20260520">
        <ele>44.000000</ele>
        <time>2011-12-26T19:28:53Z</time>
      </trkpt>
    </trkseg>
  </trk>
</gpx>

